Time;durP1;ratioP1;P1;durP2;ratioP2;P2;SDS_P1;SDS_P2;PMS_P1;PMS_P2;Temp;Humidity;BMP_temperature;BMP_pressure;BME280_temperature;BME280_humidity;BME280_pressure;Samples;Min_cycle;Max_cycle;Signal;HPM_P1;HPM_P2
2022/07/15 00:01:42;;;;;;;;;9.00;7.00;;;;;;;;5092619;27;45385;-66
2022/07/15 00:04:07;;;;;;;;;5.75;5.00;;;;;;;;5092476;27;46252;-67
2022/07/15 00:06:32;;;;;;;;;5.75;5.75;;;;;;;;5094591;27;45341;-67
2022/07/15 00:08:58;;;;;;;;;7.33;6.33;;;;;;;;5094040;27;45338;-67
2022/07/15 00:11:23;;;;;;;;;6.75;4.75;;;;;;;;5093935;27;45497;-67
2022/07/15 00:13:48;;;;;;;;;2.75;2.75;;;;;;;;5092106;27;47144;-67
2022/07/15 00:16:14;;;;;;;;;5.00;5.00;;;;;;;;5091981;27;45683;-67
2022/07/15 00:18:39;;;;;;;;;7.00;5.00;;;;;;;;5093711;27;45629;-67
2022/07/15 00:21:04;;;;;;;;;6.00;6.00;;;;;;;;5095058;27;45443;-67
2022/07/15 00:23:30;;;;;;;;;6.25;5.00;;;;;;;;5092159;27;47466;-67
2022/07/15 00:25:55;;;;;;;;;8.25;6.00;;;;;;;;5092223;27;45487;-67
2022/07/15 00:28:20;;;;;;;;;4.67;4.67;;;;;;;;5094554;27;45452;-67
2022/07/15 00:30:45;;;;;;;;;5.00;5.00;;;;;;;;5092286;27;45389;-67
2022/07/15 00:33:10;;;;;;;;;5.00;5.00;;;;;;;;5095258;27;45421;-65
2022/07/15 00:35:37;;;;;;;;;9.00;6.00;;;;;;;;5091926;27;45555;-67
2022/07/15 00:38:03;;;;;;;;;7.00;5.67;;;;;;;;5092022;27;45540;-67
2022/07/15 00:40:28;;;;;;;;;5.00;5.00;;;;;;;;5093552;27;45541;-67
2022/07/15 00:42:54;;;;;;;;;7.33;6.33;;;;;;;;5091903;27;45341;-67
2022/07/15 00:45:20;;;;;;;;;6.00;6.00;;;;;;;;5100254;27;45370;-67
2022/07/15 00:47:53;;;;;;;;;5.33;5.00;;;;;;;;5092748;27;45653;-67
2022/07/15 00:50:19;;;;;;;;;6.00;5.00;;;;;;;;5091767;27;45555;-67
2022/07/15 00:52:45;;;;;;;;;5.00;5.00;;;;;;;;5091305;27;45284;-67
2022/07/15 00:55:12;;;;;;;;;4.00;4.00;;;;;;;;5091803;27;45476;-67
2022/07/15 00:57:39;;;;;;;;;7.67;6.33;;;;;;;;5093017;27;45811;-67
2022/07/15 01:00:06;;;;;;;;;5.00;5.00;;;;;;;;5094058;27;45428;-67
2022/07/15 01:02:32;;;;;;;;;4.67;4.67;;;;;;;;5091168;27;47299;-68
2022/07/15 01:05:00;;;;;;;;;5.67;5.67;;;;;;;;5091788;27;45454;-67
2022/07/15 01:07:25;;;;;;;;;4.33;4.33;;;;;;;;5091584;27;45392;-67
2022/07/15 01:09:50;;;;;;;;;4.33;4.00;;;;;;;;5091994;27;45318;-67
2022/07/15 01:12:15;;;;;;;;;5.67;5.67;;;;;;;;5095404;27;45737;-67
2022/07/15 01:14:41;;;;;;;;;4.67;4.67;;;;;;;;5091147;27;45557;-67
2022/07/15 01:17:10;;;;;;;;;7.00;4.67;;;;;;;;5091435;27;45455;-68
2022/07/15 01:19:35;;;;;;;;;6.00;4.00;;;;;;;;5091812;27;45406;-67
2022/07/15 01:22:00;;;;;;;;;4.00;4.00;;;;;;;;5091383;27;45866;-67
2022/07/15 01:24:25;;;;;;;;;4.00;4.00;;;;;;;;5094010;27;45330;-67
2022/07/15 01:26:50;;;;;;;;;5.33;5.00;;;;;;;;5092720;27;45462;-67
2022/07/15 01:29:16;;;;;;;;;5.67;4.00;;;;;;;;5093451;27;45434;-67
2022/07/15 01:31:41;;;;;;;;;4.67;4.67;;;;;;;;5091398;27;46840;-67
2022/07/15 01:34:06;;;;;;;;;5.33;5.33;;;;;;;;5091491;27;45445;-67
2022/07/15 01:36:31;;;;;;;;;4.00;4.00;;;;;;;;5093533;27;45747;-67
2022/07/15 01:38:56;;;;;;;;;4.00;3.00;;;;;;;;5092790;27;45317;-67
2022/07/15 01:41:22;;;;;;;;;4.00;4.00;;;;;;;;5090903;27;45478;-67
2022/07/15 01:43:47;;;;;;;;;4.00;3.00;;;;;;;;5090789;27;45413;-67
2022/07/15 01:46:12;;;;;;;;;3.00;3.00;;;;;;;;5091516;27;45478;-67
2022/07/15 01:51:22;;;;;;;;;4.00;4.00;;;;;;;;5090195;27;45561;-68
2022/07/15 01:53:47;;;;;;;;;5.00;5.00;;;;;;;;5091999;27;45370;-67
2022/07/15 01:56:13;;;;;;;;;5.67;5.67;;;;;;;;5091235;27;45526;-67
2022/07/15 01:58:38;;;;;;;;;4.33;4.33;;;;;;;;5090549;27;45584;-68
2022/07/15 02:01:03;;;;;;;;;4.67;4.67;;;;;;;;5091034;27;46728;-68
2022/07/15 02:03:28;;;;;;;;;5.00;5.00;;;;;;;;5093276;27;45385;-68
2022/07/15 02:05:54;;;;;;;;;3.67;3.67;;;;;;;;5094647;27;45326;-68
2022/07/15 02:08:19;;;;;;;;;4.33;4.33;;;;;;;;5094473;27;45357;-67
2022/07/15 02:10:44;;;;;;;;;4.33;4.33;;;;;;;;5093968;27;46510;-67
2022/07/15 02:13:10;;;;;;;;;3.00;3.00;;;;;;;;5093832;27;45455;-67
2022/07/15 02:15:36;;;;;;;;;5.67;5.67;;;;;;;;5096235;27;45338;-67
2022/07/15 02:18:02;;;;;;;;;4.33;4.00;;;;;;;;5096342;27;45451;-67
2022/07/15 02:20:27;;;;;;;;;4.00;4.00;;;;;;;;5093874;27;46452;-68
2022/07/15 02:22:53;;;;;;;;;3.33;3.33;;;;;;;;5094326;27;45441;-67
2022/07/15 02:25:18;;;;;;;;;6.33;5.00;;;;;;;;5093831;27;45310;-68
2022/07/15 02:27:43;;;;;;;;;4.33;3.00;;;;;;;;5096412;27;45440;-68
2022/07/15 02:30:09;;;;;;;;;3.33;3.33;;;;;;;;5097799;27;46229;-67
2022/07/15 02:32:34;;;;;;;;;6.33;4.67;;;;;;;;5093783;27;45547;-67
2022/07/15 02:34:59;;;;;;;;;3.00;3.00;;;;;;;;5094138;27;45402;-67
2022/07/15 02:37:24;;;;;;;;;3.00;3.00;;;;;;;;5095383;27;45355;-68
2022/07/15 02:39:49;;;;;;;;;4.00;4.00;;;;;;;;5093573;27;45421;-68
2022/07/15 02:42:15;;;;;;;;;5.67;5.00;;;;;;;;5097717;27;45354;-67
2022/07/15 02:44:40;;;;;;;;;3.67;3.67;;;;;;;;5093770;27;45457;-67
2022/07/15 02:47:05;;;;;;;;;3.67;3.67;;;;;;;;5095616;27;45373;-67
2022/07/15 02:49:30;;;;;;;;;3.67;3.67;;;;;;;;5093550;27;46196;-67
2022/07/15 02:51:56;;;;;;;;;3.67;3.67;;;;;;;;5096177;27;45306;-66
2022/07/15 02:54:21;;;;;;;;;6.00;4.00;;;;;;;;5106704;27;45511;-66
2022/07/15 02:56:46;;;;;;;;;5.67;4.00;;;;;;;;5107266;27;45363;-68
2022/07/15 02:59:11;;;;;;;;;4.00;4.00;;;;;;;;5105986;27;45515;-68
2022/07/15 03:01:36;;;;;;;;;5.00;5.00;;;;;;;;5107058;27;45745;-68
2022/07/15 03:04:02;;;;;;;;;3.67;3.67;;;;;;;;5106183;27;45391;-69
2022/07/15 03:06:27;;;;;;;;;6.00;4.00;;;;;;;;5106004;27;45439;-69
2022/07/15 03:08:52;;;;;;;;;4.00;3.00;;;;;;;;5105912;27;45467;-69
2022/07/15 03:11:17;;;;;;;;;4.00;4.00;;;;;;;;5105244;27;45365;-67
2022/07/15 03:13:43;;;;;;;;;4.33;3.67;;;;;;;;5108165;27;46799;-69
2022/07/15 03:16:08;;;;;;;;;4.67;3.67;;;;;;;;5106470;27;45478;-68
2022/07/15 03:18:33;;;;;;;;;4.00;4.00;;;;;;;;5106799;27;45511;-69
2022/07/15 03:20:58;;;;;;;;;4.67;4.67;;;;;;;;5102173;27;45671;-68
2022/07/15 03:23:24;;;;;;;;;4.00;4.00;;;;;;;;5098280;27;45486;-68
2022/07/15 03:25:49;;;;;;;;;5.00;4.00;;;;;;;;5100899;27;45534;-69
2022/07/15 03:28:14;;;;;;;;;3.33;2.67;;;;;;;;5103397;27;46250;-68
2022/07/15 03:30:39;;;;;;;;;3.67;3.67;;;;;;;;5103281;27;45507;-67
2022/07/15 03:33:04;;;;;;;;;4.00;3.00;;;;;;;;5107856;27;45463;-68
2022/07/15 03:35:30;;;;;;;;;4.67;4.67;;;;;;;;5106569;27;45506;-68
2022/07/15 03:37:55;;;;;;;;;3.67;3.00;;;;;;;;5107167;27;45552;-69
2022/07/15 03:40:20;;;;;;;;;4.00;4.00;;;;;;;;5107379;27;45855;-68
2022/07/15 03:42:45;;;;;;;;;3.00;3.00;;;;;;;;5097924;27;45884;-67
2022/07/15 03:45:10;;;;;;;;;2.67;2.67;;;;;;;;5095891;27;45498;-69
2022/07/15 03:47:36;;;;;;;;;3.00;3.00;;;;;;;;5092709;27;46217;-68
2022/07/15 03:50:01;;;;;;;;;5.00;3.67;;;;;;;;5092402;27;45455;-69
2022/07/15 03:52:26;;;;;;;;;4.67;3.00;;;;;;;;5092451;27;45874;-69
2022/07/15 03:54:52;;;;;;;;;3.00;3.00;;;;;;;;5092955;27;45345;-68
2022/07/15 03:57:17;;;;;;;;;5.67;5.00;;;;;;;;5095730;27;46508;-68
2022/07/15 03:59:42;;;;;;;;;3.00;3.00;;;;;;;;5092857;27;45408;-69
2022/07/15 04:02:07;;;;;;;;;3.00;3.00;;;;;;;;5092407;27;45398;-69
2022/07/15 04:04:32;;;;;;;;;3.00;3.00;;;;;;;;5092751;27;45405;-69
2022/07/15 04:06:58;;;;;;;;;2.33;2.33;;;;;;;;5091961;27;45739;-70
2022/07/15 04:09:23;;;;;;;;;3.67;3.67;;;;;;;;5095116;27;45251;-69
2022/07/15 04:11:48;;;;;;;;;4.00;4.00;;;;;;;;5093651;27;45270;-70
2022/07/15 04:14:14;;;;;;;;;4.00;4.00;;;;;;;;5092467;27;45448;-69
2022/07/15 04:16:39;;;;;;;;;3.00;3.00;;;;;;;;5091775;27;46414;-69
2022/07/15 04:19:05;;;;;;;;;5.00;3.00;;;;;;;;5092647;27;45345;-70
2022/07/15 04:21:30;;;;;;;;;2.00;2.00;;;;;;;;5094636;27;45193;-69
2022/07/15 04:23:56;;;;;;;;;3.00;3.00;;;;;;;;5093572;27;45600;-69
2022/07/15 04:26:21;;;;;;;;;3.33;3.33;;;;;;;;5093492;27;47310;-69
2022/07/15 04:28:47;;;;;;;;;5.33;2.33;;;;;;;;5093562;27;45545;-70
2022/07/15 04:31:12;;;;;;;;;4.33;3.33;;;;;;;;5092248;27;45517;-69
2022/07/15 04:33:37;;;;;;;;;2.67;2.67;;;;;;;;5093958;27;46265;-69
2022/07/15 04:36:02;;;;;;;;;3.33;3.33;;;;;;;;5093805;27;46203;-69
2022/07/15 04:38:28;;;;;;;;;3.00;3.00;;;;;;;;5091764;27;45338;-69
2022/07/15 04:40:53;;;;;;;;;3.00;3.00;;;;;;;;5092148;27;45531;-69
2022/07/15 04:43:19;;;;;;;;;2.33;2.33;;;;;;;;5092145;27;45517;-69
2022/07/15 04:45:44;;;;;;;;;4.00;3.00;;;;;;;;5092166;27;46221;-69
2022/07/15 04:50:53;;;;;;;;;4.67;3.00;;;;;;;;5094732;27;45405;-69
2022/07/15 04:53:19;;;;;;;;;3.00;3.00;;;;;;;;5091636;27;45416;-69
2022/07/15 04:55:45;;;;;;;;;3.00;3.00;;;;;;;;5091858;27;45682;-69
2022/07/15 04:58:10;;;;;;;;;3.00;2.00;;;;;;;;5091577;27;45480;-69
2022/07/15 05:00:35;;;;;;;;;4.00;4.00;;;;;;;;5093734;27;45770;-69
2022/07/15 05:03:04;;;;;;;;;2.67;2.67;;;;;;;;5093866;27;45441;-69
2022/07/15 05:05:29;;;;;;;;;2.67;2.67;;;;;;;;5091282;27;46182;-69
2022/07/15 05:07:54;;;;;;;;;3.00;2.00;;;;;;;;5091443;27;45383;-69
2022/07/15 05:10:20;;;;;;;;;4.67;4.67;;;;;;;;5091900;27;45346;-69
2022/07/15 05:12:45;;;;;;;;;4.67;3.33;;;;;;;;5092058;27;45327;-69
2022/07/15 05:15:10;;;;;;;;;3.33;3.33;;;;;;;;5094162;27;46716;-70
2022/07/15 05:17:35;;;;;;;;;4.33;3.00;;;;;;;;5093425;27;45374;-69
2022/07/15 05:20:00;;;;;;;;;3.00;3.00;;;;;;;;5091231;27;45380;-70
2022/07/15 05:22:26;;;;;;;;;3.00;3.00;;;;;;;;5091887;27;45439;-69
2022/07/15 05:24:51;;;;;;;;;3.67;3.67;;;;;;;;5091121;27;46482;-70
2022/07/15 05:27:16;;;;;;;;;3.00;3.00;;;;;;;;5095129;27;45461;-70
2022/07/15 05:29:42;;;;;;;;;4.00;4.00;;;;;;;;5093771;27;45316;-69
2022/07/15 05:32:07;;;;;;;;;2.67;2.67;;;;;;;;5091317;27;45367;-69
2022/07/15 05:34:32;;;;;;;;;5.00;3.00;;;;;;;;5091056;27;46276;-70
2022/07/15 05:36:58;;;;;;;;;2.67;2.67;;;;;;;;5091395;27;45331;-69
2022/07/15 05:39:23;;;;;;;;;3.00;3.00;;;;;;;;5094590;27;45381;-69
2022/07/15 05:41:48;;;;;;;;;2.00;2.00;;;;;;;;5095905;27;45740;-69
2022/07/15 05:44:14;;;;;;;;;2.67;2.67;;;;;;;;5094693;27;45496;-70
2022/07/15 05:46:39;;;;;;;;;3.00;3.00;;;;;;;;5094642;27;45531;-69
2022/07/15 05:49:04;;;;;;;;;3.67;3.33;;;;;;;;5094589;27;45401;-70
2022/07/15 05:51:30;;;;;;;;;3.33;2.00;;;;;;;;5097232;27;45406;-70
2022/07/15 05:53:55;;;;;;;;;3.33;3.00;;;;;;;;5095920;27;45413;-69
2022/07/15 05:56:21;;;;;;;;;3.00;3.00;;;;;;;;5094542;27;45346;-69
2022/07/15 05:58:47;;;;;;;;;3.00;3.00;;;;;;;;5096244;27;45483;-70
2022/07/15 06:01:12;;;;;;;;;3.00;3.00;;;;;;;;5094636;27;45267;-69
2022/07/15 06:03:37;;;;;;;;;4.00;3.33;;;;;;;;5095648;27;46300;-69
2022/07/15 06:06:03;;;;;;;;;4.33;3.33;;;;;;;;5098503;27;45312;-70
2022/07/15 06:08:28;;;;;;;;;3.33;3.33;;;;;;;;5094354;27;45370;-69
2022/07/15 06:10:53;;;;;;;;;4.00;4.00;;;;;;;;5094752;27;45476;-70
2022/07/15 06:13:20;;;;;;;;;2.33;2.33;;;;;;;;5094330;27;45798;-70
2022/07/15 06:15:46;;;;;;;;;3.00;3.00;;;;;;;;5094701;27;45473;-69
2022/07/15 06:18:11;;;;;;;;;2.00;2.00;;;;;;;;5097224;27;45350;-69
2022/07/15 06:20:36;;;;;;;;;3.00;3.00;;;;;;;;5094344;27;45492;-70
2022/07/15 06:23:01;;;;;;;;;2.33;2.33;;;;;;;;5095843;27;45341;-70
2022/07/15 06:25:26;;;;;;;;;3.00;3.00;;;;;;;;5093707;27;45283;-70
2022/07/15 06:27:52;;;;;;;;;2.00;2.00;;;;;;;;5096440;27;45333;-70
2022/07/15 06:30:17;;;;;;;;;2.67;2.67;;;;;;;;5098177;27;45263;-70
2022/07/15 06:32:42;;;;;;;;;2.67;2.67;;;;;;;;5093553;27;45588;-69
2022/07/15 06:35:08;;;;;;;;;3.00;3.00;;;;;;;;5093531;27;45385;-69
2022/07/15 06:37:33;;;;;;;;;3.00;3.00;;;;;;;;5095822;27;45470;-69
2022/07/15 06:39:58;;;;;;;;;2.33;2.33;;;;;;;;5094048;27;45532;-69
2022/07/15 06:42:24;;;;;;;;;2.00;2.00;;;;;;;;5096196;27;46352;-70
2022/07/15 06:44:49;;;;;;;;;2.00;2.00;;;;;;;;5095032;27;45389;-70
2022/07/15 06:47:14;;;;;;;;;3.00;3.00;;;;;;;;5095099;27;45536;-69
2022/07/15 06:49:39;;;;;;;;;1.00;1.00;;;;;;;;5094038;27;45557;-70
2022/07/15 06:52:05;;;;;;;;;2.00;2.00;;;;;;;;5093404;27;46612;-69
2022/07/15 06:54:30;;;;;;;;;1.67;1.67;;;;;;;;5095876;27;45370;-69
2022/07/15 06:56:56;;;;;;;;;3.00;3.00;;;;;;;;5095138;27;45349;-69
2022/07/15 06:59:21;;;;;;;;;4.00;2.67;;;;;;;;5093482;27;45357;-69
2022/07/15 07:01:47;;;;;;;;;2.00;2.00;;;;;;;;5093264;27;46738;-70
2022/07/15 07:04:12;;;;;;;;;4.33;2.33;;;;;;;;5093542;27;45570;-69
2022/07/15 07:06:37;;;;;;;;;3.33;3.33;;;;;;;;5095400;27;45459;-69
2022/07/15 07:09:02;;;;;;;;;3.00;3.00;;;;;;;;5095839;27;45397;-69
2022/07/15 07:11:28;;;;;;;;;2.00;2.00;;;;;;;;5093122;27;46281;-70
2022/07/15 07:13:53;;;;;;;;;3.00;3.00;;;;;;;;5093172;27;45387;-69
2022/07/15 07:16:18;;;;;;;;;0.00;0.00;;;;;;;;5093318;27;45337;-69
2022/07/15 07:18:50;;;;;;;;;2.00;2.00;;;;;;;;5094144;27;45426;-69
2022/07/15 07:21:15;;;;;;;;;2.67;2.67;;;;;;;;5092588;27;45405;-70
2022/07/15 07:23:40;;;;;;;;;3.33;1.67;;;;;;;;5093022;27;45655;-70
2022/07/15 07:26:06;;;;;;;;;3.67;3.00;;;;;;;;5093345;27;45357;-69
2022/07/15 07:28:32;;;;;;;;;1.00;1.00;;;;;;;;5095299;27;45470;-69
2022/07/15 07:30:58;;;;;;;;;3.67;2.00;;;;;;;;5093417;27;45992;-70
2022/07/15 07:33:23;;;;;;;;;4.67;2.00;;;;;;;;5095732;27;45262;-69
2022/07/15 07:35:48;;;;;;;;;2.33;2.33;;;;;;;;5093950;27;45467;-69
2022/07/15 07:38:14;;;;;;;;;2.00;2.00;;;;;;;;5093011;27;45517;-69
2022/07/15 07:40:39;;;;;;;;;2.00;2.00;;;;;;;;5093107;27;46225;-69
2022/07/15 07:43:04;;;;;;;;;3.33;2.00;;;;;;;;5092761;27;45508;-69
2022/07/15 07:45:29;;;;;;;;;2.00;2.00;;;;;;;;5095399;27;45306;-69
2022/07/15 07:47:55;;;;;;;;;2.00;2.00;;;;;;;;5094165;27;45310;-70
2022/07/15 07:50:20;;;;;;;;;2.00;2.00;;;;;;;;5092743;27;45406;-70
2022/07/15 07:52:45;;;;;;;;;3.00;3.00;;;;;;;;5095341;27;45487;-70
2022/07/15 07:55:10;;;;;;;;;3.33;2.33;;;;;;;;5093000;27;45186;-69
2022/07/15 07:57:45;;;;;;;;;1.00;1.00;;;;;;;;5094684;27;45301;-70
2022/07/15 08:00:12;;;;;;;;;2.00;2.00;;;;;;;;5095456;27;46349;-70
2022/07/15 08:02:37;;;;;;;;;1.00;1.00;;;;;;;;5091108;27;45383;-70
2022/07/15 08:05:03;;;;;;;;;4.00;2.00;;;;;;;;5092656;27;45418;-70
2022/07/15 08:07:29;;;;;;;;;1.33;1.00;;;;;;;;5092632;27;45577;-70
2022/07/15 08:09:54;;;;;;;;;2.00;2.00;;;;;;;;5092474;27;45598;-70
2022/07/15 08:12:19;;;;;;;;;1.67;1.67;;;;;;;;5095808;27;45431;-70
2022/07/15 08:14:44;;;;;;;;;1.00;1.00;;;;;;;;5092556;27;45578;-70
2022/07/15 08:17:10;;;;;;;;;3.00;3.00;;;;;;;;5092197;27;45514;-69
2022/07/15 08:19:35;;;;;;;;;0.33;0.33;;;;;;;;5092467;27;47244;-69
2022/07/15 08:22:01;;;;;;;;;1.33;1.33;;;;;;;;5092261;27;45419;-70
2022/07/15 08:24:26;;;;;;;;;2.33;1.00;;;;;;;;5094720;27;45342;-70
2022/07/15 08:26:52;;;;;;;;;2.33;1.00;;;;;;;;5094599;27;45480;-70
2022/07/15 08:29:17;;;;;;;;;2.00;1.00;;;;;;;;5093842;27;47134;-70
2022/07/15 08:31:43;;;;;;;;;2.00;2.00;;;;;;;;5092395;27;45441;-69
2022/07/15 08:34:08;;;;;;;;;1.33;1.33;;;;;;;;5092266;27;45263;-69
2022/07/15 08:36:33;;;;;;;;;2.00;2.00;;;;;;;;5094440;27;45358;-70
2022/07/15 08:38:58;;;;;;;;;2.00;2.00;;;;;;;;5093547;27;46446;-70
2022/07/15 08:41:24;;;;;;;;;1.00;1.00;;;;;;;;5091608;27;45525;-70
2022/07/15 08:43:49;;;;;;;;;2.00;1.00;;;;;;;;5091728;27;45449;-69
2022/07/15 08:46:15;;;;;;;;;4.00;3.00;;;;;;;;5092251;27;45489;-69
2022/07/15 08:48:40;;;;;;;;;2.00;2.00;;;;;;;;5093021;27;45496;-70
2022/07/15 08:51:07;;;;;;;;;2.33;1.67;;;;;;;;5094335;27;45279;-69
2022/07/15 08:53:33;;;;;;;;;3.67;2.00;;;;;;;;5092069;27;45266;-69
2022/07/15 08:55:59;;;;;;;;;1.00;1.00;;;;;;;;5091847;27;45532;-69
2022/07/15 08:58:24;;;;;;;;;2.67;2.00;;;;;;;;5091198;27;46433;-70
2022/07/15 09:00:49;;;;;;;;;2.00;1.67;;;;;;;;5092079;27;45373;-69
2022/07/15 09:03:14;;;;;;;;;2.00;2.00;;;;;;;;5090991;27;45329;-70
2022/07/15 09:05:40;;;;;;;;;2.00;1.00;;;;;;;;5091902;27;45545;-70
2022/07/15 09:08:07;;;;;;;;;3.00;3.00;;;;;;;;5091422;27;46462;-70
2022/07/15 09:10:51;;;;;;;;;2.00;2.00;;;;;;;;5091732;27;45522;-70
2022/07/15 09:13:22;;;;;;;;;2.00;2.00;;;;;;;;5093051;27;45533;-70
2022/07/15 09:15:49;;;;;;;;;2.67;1.00;;;;;;;;5090257;27;45513;-70
2022/07/15 09:18:17;;;;;;;;;2.00;2.00;;;;;;;;5098934;27;45437;-69
2022/07/15 09:20:43;;;;;;;;;1.67;1.67;;;;;;;;5096621;27;45472;-70
2022/07/15 09:23:09;;;;;;;;;2.00;2.00;;;;;;;;5095358;27;45528;-70
2022/07/15 09:25:35;;;;;;;;;1.67;1.67;;;;;;;;5095301;27;45424;-70
2022/07/15 09:28:04;;;;;;;;;2.00;2.00;;;;;;;;5096629;27;45328;-70
2022/07/15 09:36:07;;;;;;;;;0.67;0.67;;;;;;;;5096888;27;45461;-69
2022/07/15 09:38:34;;;;;;;;;1.33;1.33;;;;;;;;5094562;27;46149;-69
2022/07/15 09:41:01;;;;;;;;;3.33;2.33;;;;;;;;5094390;27;45476;-69
2022/07/15 09:43:26;;;;;;;;;2.00;2.00;;;;;;;;5095277;27;45384;-71
2022/07/15 09:45:59;;;;;;;;;2.00;0.67;;;;;;;;5094887;27;45358;-69
2022/07/15 09:48:25;;;;;;;;;1.67;1.67;;;;;;;;5097759;27;45542;-70
2022/07/15 09:50:50;;;;;;;;;1.67;1.67;;;;;;;;5095765;27;45333;-70
2022/07/15 09:53:16;;;;;;;;;0.33;0.33;;;;;;;;5094690;27;45541;-70
2022/07/15 09:55:41;;;;;;;;;1.67;1.67;;;;;;;;5094719;27;45426;-69
2022/07/15 09:58:08;;;;;;;;;1.33;1.33;;;;;;;;5095403;27;46248;-70
2022/07/15 10:00:33;;;;;;;;;1.67;1.67;;;;;;;;5097213;27;45560;-70
2022/07/15 10:02:58;;;;;;;;;1.67;1.33;;;;;;;;5095921;27;45424;-69
2022/07/15 10:05:24;;;;;;;;;1.33;1.33;;;;;;;;5094437;27;45323;-70
2022/07/15 10:07:52;;;;;;;;;1.33;1.33;;;;;;;;5094392;27;46379;-70
2022/07/15 10:10:19;;;;;;;;;2.00;2.00;;;;;;;;5094231;27;45495;-69
2022/07/15 10:12:54;;;;;;;;;1.00;1.00;;;;;;;;5095153;27;45377;-70
2022/07/15 10:15:33;;;;;;;;;2.00;2.00;;;;;;;;5094101;27;45502;-69
2022/07/15 10:18:02;;;;;;;;;1.00;1.00;;;;;;;;5097365;27;45295;-70
2022/07/15 10:20:37;;;;;;;;;2.00;2.00;;;;;;;;5094012;27;45498;-70
2022/07/15 10:23:12;;;;;;;;;1.00;1.00;;;;;;;;5096014;27;45476;-70
2022/07/15 10:25:39;;;;;;;;;1.00;1.00;;;;;;;;5093479;27;45319;-70
2022/07/15 10:28:08;;;;;;;;;1.67;1.67;;;;;;;;5093943;27;46735;-70
2022/07/15 10:30:34;;;;;;;;;1.00;1.00;;;;;;;;5096333;27;45743;-70
2022/07/15 10:33:10;;;;;;;;;1.00;1.00;;;;;;;;5095254;27;45348;-70
2022/07/15 10:35:38;;;;;;;;;3.00;1.00;;;;;;;;5094154;27;45465;-69
2022/07/15 10:38:19;;;;;;;;;1.67;1.67;;;;;;;;5092942;27;46950;-69
2022/07/15 10:41:03;;;;;;;;;2.00;2.00;;;;;;;;5093836;27;45528;-70
2022/07/15 10:43:40;;;;;;;;;2.00;2.00;;;;;;;;5093984;27;45600;-69
2022/07/15 10:46:16;;;;;;;;;1.00;1.00;;;;;;;;5095389;27;45512;-70
2022/07/15 10:48:42;;;;;;;;;1.00;1.00;;;;;;;;5095157;27;46276;-70
2022/07/15 10:51:08;;;;;;;;;1.00;1.00;;;;;;;;5096383;27;45289;-70
2022/07/15 10:53:41;;;;;;;;;0.67;0.67;;;;;;;;5093346;27;45293;-69
2022/07/15 10:56:25;;;;;;;;;1.00;1.00;;;;;;;;5093851;27;45411;-69
2022/07/15 10:59:09;;;;;;;;;1.67;1.00;;;;;;;;5092924;27;46385;-69
2022/07/15 11:01:35;;;;;;;;;0.33;0.33;;;;;;;;5083774;27;45631;-70
2022/07/15 11:04:09;;;;;;;;;1.33;1.00;;;;;;;;5093632;27;45455;-69
2022/07/15 11:06:54;;;;;;;;;1.00;1.00;;;;;;;;5096010;27;48082;-70
2022/07/15 11:09:52;;;;;;;;;0.33;0.33;;;;;;;;5096507;27;46656;-70
2022/07/15 11:12:19;;;;;;;;;1.00;1.00;;;;;;;;5070387;28;45629;-69
2022/07/15 11:14:49;;;;;;;;;1.00;1.00;;;;;;;;5073138;28;45384;-69
2022/07/15 11:17:17;;;;;;;;;2.33;1.00;;;;;;;;5073191;28;45452;-69
2022/07/15 11:19:45;;;;;;;;;0.33;0.33;;;;;;;;5073490;28;45529;-69
2022/07/15 11:22:10;;;;;;;;;2.67;1.33;;;;;;;;5062675;28;45371;-69
2022/07/15 11:24:36;;;;;;;;;1.00;1.00;;;;;;;;5071292;28;45825;-70
2022/07/15 11:27:02;;;;;;;;;1.00;1.00;;;;;;;;5069284;28;45406;-69
2022/07/15 11:29:40;;;;;;;;;1.00;1.00;;;;;;;;5062890;28;46645;-69
2022/07/15 11:32:07;;;;;;;;;2.00;2.00;;;;;;;;5072830;28;45501;-69
2022/07/15 11:34:39;;;;;;;;;1.00;1.00;;;;;;;;5073101;28;45507;-70
2022/07/15 11:37:04;;;;;;;;;1.00;1.00;;;;;;;;5071200;28;45457;-70
2022/07/15 11:39:30;;;;;;;;;2.00;2.00;;;;;;;;5072591;28;46189;-70
2022/07/15 11:44:44;;;;;;;;;0.00;0.00;;;;;;;;5072889;28;45588;-70
2022/07/15 11:47:10;;;;;;;;;1.33;1.33;;;;;;;;5074465;27;45474;-70
2022/07/15 11:49:39;;;;;;;;;0.33;0.33;;;;;;;;5092555;27;46161;-69
2022/07/15 11:52:05;;;;;;;;;1.33;1.33;;;;;;;;5092589;27;45495;-70
2022/07/15 11:54:31;;;;;;;;;0.00;0.00;;;;;;;;5094924;27;45294;-69
2022/07/15 11:57:00;;;;;;;;;0.67;0.33;;;;;;;;5094073;27;45468;-69
2022/07/15 11:59:33;;;;;;;;;1.33;1.33;;;;;;;;5079637;27;45457;-69
2022/07/15 12:02:08;;;;;;;;;1.00;1.00;;;;;;;;5069577;27;45346;-69
2022/07/15 12:04:33;;;;;;;;;3.00;2.00;;;;;;;;5037476;28;45437;-69
2022/07/15 12:06:59;;;;;;;;;0.00;0.00;;;;;;;;5078755;27;45485;-69
2022/07/15 12:09:24;;;;;;;;;1.00;1.00;;;;;;;;5076070;27;45329;-69
2022/07/15 12:11:49;;;;;;;;;1.00;1.00;;;;;;;;5070189;27;45443;-69
2022/07/15 12:14:19;;;;;;;;;0.33;0.33;;;;;;;;5068496;27;45536;-69
2022/07/15 12:16:46;;;;;;;;;0.33;0.33;;;;;;;;5073433;27;45332;-69
2022/07/15 12:19:15;;;;;;;;;1.00;1.00;;;;;;;;5078743;27;45614;-69
2022/07/15 12:21:41;;;;;;;;;1.33;1.33;;;;;;;;5074470;27;45572;-69
2022/07/15 12:24:17;;;;;;;;;1.33;1.33;;;;;;;;5073951;27;45227;-69
2022/07/15 12:26:52;;;;;;;;;0.33;0.33;;;;;;;;5067835;27;45644;-68
2022/07/15 12:29:18;;;;;;;;;0.00;0.00;;;;;;;;5067210;27;45446;-69
2022/07/15 12:31:50;;;;;;;;;1.00;1.00;;;;;;;;5073299;27;45394;-69
2022/07/15 12:34:16;;;;;;;;;0.00;0.00;;;;;;;;5076915;27;45377;-69
2022/07/15 12:36:41;;;;;;;;;1.00;1.00;;;;;;;;5073975;27;45583;-69
2022/07/15 12:39:08;;;;;;;;;1.00;1.00;;;;;;;;5073354;27;46547;-69
2022/07/15 12:41:34;;;;;;;;;1.00;1.00;;;;;;;;5068004;27;45521;-69
2022/07/15 12:44:01;;;;;;;;;1.00;1.00;;;;;;;;5068874;27;45339;-69
2022/07/15 12:46:45;;;;;;;;;1.00;1.00;;;;;;;;5075135;27;45489;-69
2022/07/15 12:49:10;;;;;;;;;1.67;1.67;;;;;;;;5077524;27;45441;-69
2022/07/15 12:51:35;;;;;;;;;1.00;1.00;;;;;;;;5074762;27;45612;-70
2022/07/15 12:54:05;;;;;;;;;1.00;1.00;;;;;;;;5072061;27;45537;-69
2022/07/15 12:56:30;;;;;;;;;1.00;1.00;;;;;;;;5067522;27;45705;-69
2022/07/15 12:58:56;;;;;;;;;1.33;1.33;;;;;;;;5069141;27;47412;-69
2022/07/15 13:01:21;;;;;;;;;1.00;1.00;;;;;;;;5069237;27;45581;-69
2022/07/15 13:03:46;;;;;;;;;2.00;1.00;;;;;;;;5073114;27;45510;-69
2022/07/15 13:06:12;;;;;;;;;1.67;1.33;;;;;;;;5074602;27;45568;-69
2022/07/15 13:08:38;;;;;;;;;1.00;1.00;;;;;;;;5067026;27;46269;-68
2022/07/15 13:11:05;;;;;;;;;1.67;1.00;;;;;;;;5055627;28;45333;-69
2022/07/15 13:13:32;;;;;;;;;1.00;1.00;;;;;;;;5062874;28;45565;-69
2022/07/15 13:15:58;;;;;;;;;0.67;0.67;;;;;;;;5059785;28;45317;-69
2022/07/15 13:18:25;;;;;;;;;0.67;0.67;;;;;;;;5061410;28;47126;-69
2022/07/15 13:20:50;;;;;;;;;0.67;0.67;;;;;;;;5055569;28;45371;-69
2022/07/15 13:23:15;;;;;;;;;0.00;0.00;;;;;;;;5053747;28;45503;-69
2022/07/15 13:25:41;;;;;;;;;1.00;1.00;;;;;;;;5059985;28;45478;-69
2022/07/15 13:28:06;;;;;;;;;0.33;0.33;;;;;;;;5062041;28;45430;-69
2022/07/15 13:30:32;;;;;;;;;0.67;0.67;;;;;;;;5063209;28;45477;-69
2022/07/15 13:32:57;;;;;;;;;1.00;1.00;;;;;;;;5056697;28;45358;-69
2022/07/15 13:35:23;;;;;;;;;0.00;0.00;;;;;;;;5055618;28;45580;-69
2022/07/15 13:37:48;;;;;;;;;1.33;1.33;;;;;;;;5038456;28;46275;-69
2022/07/15 13:40:14;;;;;;;;;0.67;0.67;;;;;;;;5063973;28;45448;-69
2022/07/15 13:42:40;;;;;;;;;1.00;1.00;;;;;;;;5060066;28;45507;-69
2022/07/15 13:45:06;;;;;;;;;2.00;2.00;;;;;;;;5058473;28;45318;-69
2022/07/15 13:47:31;;;;;;;;;1.00;1.00;;;;;;;;5052811;28;45684;-69
2022/07/15 13:52:44;;;;;;;;;0.67;0.67;;;;;;;;5041759;28;45401;-69
2022/07/15 13:55:10;;;;;;;;;0.33;0.33;;;;;;;;5061598;28;45549;-69
2022/07/15 13:57:36;;;;;;;;;0.33;0.33;;;;;;;;5062832;28;46053;-68
2022/07/15 14:00:01;;;;;;;;;1.00;1.00;;;;;;;;5060186;28;45406;-69
2022/07/15 14:02:26;;;;;;;;;1.33;1.33;;;;;;;;5052952;28;45433;-69
2022/07/15 14:04:52;;;;;;;;;1.00;1.00;;;;;;;;5056138;28;45321;-69
2022/07/15 14:07:17;;;;;;;;;1.33;1.33;;;;;;;;5062015;28;45481;-69
2022/07/15 14:09:42;;;;;;;;;1.00;1.00;;;;;;;;5059543;28;45390;-69
2022/07/15 14:12:07;;;;;;;;;1.00;1.00;;;;;;;;5059013;28;45335;-69
2022/07/15 14:14:32;;;;;;;;;1.00;1.00;;;;;;;;5052908;28;45454;-69
2022/07/15 14:16:58;;;;;;;;;1.00;1.00;;;;;;;;5054091;28;45350;-69
2022/07/15 14:19:23;;;;;;;;;1.33;1.33;;;;;;;;5062882;28;45339;-69
2022/07/15 14:21:48;;;;;;;;;1.00;1.00;;;;;;;;5057406;28;45306;-69
2022/07/15 14:24:13;;;;;;;;;0.33;0.33;;;;;;;;5042856;28;45235;-69
2022/07/15 14:26:39;;;;;;;;;0.33;0.33;;;;;;;;5052421;28;45456;-69
2022/07/15 14:29:04;;;;;;;;;4.33;2.00;;;;;;;;5057234;28;45375;-69
2022/07/15 14:31:30;;;;;;;;;0.00;0.00;;;;;;;;5057485;28;45485;-69
2022/07/15 14:33:55;;;;;;;;;1.00;1.00;;;;;;;;5058638;28;45469;-69
2022/07/15 14:36:20;;;;;;;;;0.33;0.33;;;;;;;;5061388;28;45684;-68
2022/07/15 14:38:45;;;;;;;;;1.00;1.00;;;;;;;;5052796;28;49158;-69
2022/07/15 14:41:10;;;;;;;;;1.00;1.00;;;;;;;;5052640;28;45410;-69
2022/07/15 14:43:36;;;;;;;;;1.67;1.67;;;;;;;;5060207;28;45376;-69
2022/07/15 14:46:01;;;;;;;;;0.33;0.33;;;;;;;;5058815;28;45546;-69
2022/07/15 14:48:27;;;;;;;;;1.33;1.33;;;;;;;;5060312;28;45314;-69
2022/07/15 14:50:52;;;;;;;;;1.00;1.00;;;;;;;;5054915;28;45416;-69
2022/07/15 14:53:18;;;;;;;;;1.00;1.00;;;;;;;;5055254;28;45358;-69
2022/07/15 14:55:43;;;;;;;;;1.00;0.33;;;;;;;;5057942;28;47372;-69